Terminal Aerodrome Forecast
Issued by NWS

Home | Current Version | Previous Version | Text Only | Print | Product List | Glossary On
Versions: 1 2 3 4 5 6 7 8 9 10 11 12 13 14 15 16 17 18 19
000
FTUS44 KLZK 201700
TAFBPK
TAF
KBPK 201739Z 2018/2118 14004KT P6SM SCT007 OVC015
      TEMPO 2018/2021 5SM BR BKN007
     FM210100 14003KT 6SM BR OVC020
     FM210600 13003KT 5SM BR SCT007 OVC020
      TEMPO 2109/2113 2SM BR BKN007
     FM211500 14006KT P6SM SCT025 BKN060=

USA.gov is the U.S. government's official web portal to all federal, state and local government web resources and services.